Coraopolis, PA

5:25 PM EST on February 13, 2016 (GMT -0500)
Moon Township | | Change Station
CLOSE
Current Station
Personal Weather Station
Location: Moon Township, PA
Elevation: 1073 ft
Nearby Weather Stations

Elev 1073 ft 40.52 °N, 80.20 °W | Updated 35 seconds ago

Snow
Snow
9.1 °F
Feels Like 0 °F
N
5.3
Wind Variable Wind from NW

Today
High -- | Low -- °F
--% Chance of Precip.
Yesterday
High -- | Low -- °F
Precip. -- in
Pressure 30.35 in
Visibility 1.5 miles
Clouds Mostly Cloudy 2000 ft
Overcast 3600 ft
Windchill 0 °F
Dew Point 0 °F
Humidity 66%
Rainfall 0.00 in
Snow Depth Not available.
7:17 AM 5:53 PM
Waxing Crescent, 34% visible
SPECI KPIT 132205Z 30017KT 1 1/2SM -SN BKN020 OVC036 M13/M16 A3035 RMK AO2 P0000 T11281161
Pressure 30.35 in
Visibility 1.5 miles
Clouds Mostly Cloudy 2000 ft
Overcast 3600 ft
Windchill 0 °F
Dew Point 0 °F
Humidity 66%
Rainfall 0.00 in
Snow Depth Not available.
7:17 AM 5:53 PM
Waxing Crescent, 34% visible
SPECI KPIT 132205Z 30017KT 1 1/2SM -SN BKN020 OVC036 M13/M16 A3035 RMK AO2 P0000 T11281161

10-Day Weather Forecast

Almanac

Astronomy

Feb. 13, 2016 Rise Set
Actual Time
Civil Twilight
Nautical Twilight
Astronomical Twilight
Moon
Length of Visible Light
Length of Day
Tomorrow will be .
, % of the Moon is Illuminated

Today's Extremes

State Highs State Lows

Community

WunderPhotos

Upload Photos

1,892,688 photos uploaded!

WunderBlog® & News

Nearby

Air Quality

  Air Quality AQ Index Pollutant
Not available.

Snow Depth

Station Depth Elevation

Earthquake Activity

City Distance Mag. Time & Date
Minimum magnitude displayed is 2.5.

Coastal Water Temperatures

Place Temperature

Stations

Nearby Weather Stations

Station Location Temp. Windchill Dew Point Humidity Wind Precip. Elev Updated Type
                   

Watches & Warnings

Wind Chill Advisory
Issued: 2:50 PM EST Feb. 13, 2016 – National Weather Service

... Wind Chill Advisory remains in effect until 9 am EST Sunday...

* wind chill... as low as 14 below due to temperatures 4 below to
12 above zero... and winds west 5 to 15 mph with gusts up to 25
mph.

* Impacts... frost bite and hypothermia are possible if
precautions are not taken.